createdAt,value
2022-10-23T00:02:02.773Z,10.47
2022-10-23T00:04:31.594Z,10.42
2022-10-23T00:07:01.291Z,10.44
2022-10-23T00:09:29.790Z,10.42
2022-10-23T00:11:58.497Z,10.42
2022-10-23T00:14:26.875Z,10.54
2022-10-23T00:16:58.602Z,10.60
2022-10-23T00:19:36.560Z,10.74
2022-10-23T00:22:08.182Z,10.77
2022-10-23T00:24:38.769Z,10.75
2022-10-23T00:27:07.085Z,10.70
2022-10-23T00:29:37.539Z,10.67
2022-10-23T00:32:06.346Z,10.63
2022-10-23T00:34:35.710Z,10.60
2022-10-23T00:37:06.996Z,10.54
2022-10-23T00:39:35.333Z,10.52
2022-10-23T00:42:03.789Z,10.20
2022-10-23T00:45:09.016Z,10.03
2022-10-23T00:47:37.367Z,9.91
2022-10-23T00:50:11.765Z,9.78
2022-10-23T00:52:46.695Z,9.78
2022-10-23T00:55:15.898Z,9.73
2022-10-23T00:57:46.984Z,9.61
2022-10-23T01:00:19.102Z,9.58
2022-10-23T01:02:48.860Z,9.51
2022-10-23T01:05:18.962Z,9.47
2022-10-23T01:07:57.674Z,9.47
2022-10-23T01:10:34.801Z,9.55
2022-10-23T01:13:09.697Z,9.61
2022-10-23T01:15:45.827Z,9.59
2022-10-23T01:18:22.573Z,9.73
2022-10-23T01:21:01.604Z,9.84
2022-10-23T01:23:45.193Z,9.96
2022-10-23T01:26:25.018Z,10.03
2022-10-23T01:29:00.722Z,10.09
2022-10-23T01:31:35.912Z,10.16
2022-10-23T01:34:09.423Z,10.23
2022-10-23T01:36:41.076Z,10.30
2022-10-23T01:39:13.492Z,10.26
2022-10-23T01:41:45.758Z,10.20
2022-10-23T01:44:21.425Z,10.15
2022-10-23T01:46:52.485Z,10.05
2022-10-23T01:49:23.766Z,10.10
2022-10-23T01:51:58.361Z,10.13
2022-10-23T01:54:31.965Z,10.20
2022-10-23T01:57:01.924Z,10.29
2022-10-23T01:59:35.321Z,10.37
2022-10-23T02:02:06.326Z,10.36
2022-10-23T02:04:40.007Z,10.15
2022-10-23T02:07:08.945Z,9.94
2022-10-23T02:09:38.958Z,9.85
2022-10-23T02:12:12.077Z,9.81
2022-10-23T02:14:53.004Z,9.74
2022-10-23T02:17:27.606Z,9.71
2022-10-23T02:20:05.854Z,9.71
2022-10-23T02:22:42.045Z,9.70
2022-10-23T02:25:15.450Z,9.64
2022-10-23T02:27:46.939Z,9.41
2022-10-23T02:30:19.359Z,9.27
2022-10-23T02:32:52.068Z,9.23
2022-10-23T02:35:24.292Z,9.17
2022-10-23T02:37:57.458Z,9.12
2022-10-23T02:40:32.750Z,9.12
2022-10-23T02:43:07.615Z,9.05
2022-10-23T02:45:46.021Z,8.99
2022-10-23T02:48:21.772Z,8.96
2022-10-23T02:50:55.484Z,8.92
2022-10-23T02:53:36.850Z,8.85
2022-10-23T02:56:11.076Z,8.85
2022-10-23T02:58:46.697Z,8.88
2022-10-23T03:01:18.730Z,8.98
2022-10-23T03:03:53.578Z,8.92
2022-10-23T03:06:23.458Z,8.90
2022-10-23T03:08:55.825Z,8.83
2022-10-23T03:11:24.276Z,8.80
2022-10-23T03:13:57.790Z,8.64
2022-10-23T03:16:28.164Z,8.52
2022-10-23T03:18:56.734Z,8.41
2022-10-23T03:21:27.435Z,8.33
2022-10-23T03:23:56.445Z,8.26
2022-10-23T03:26:26.388Z,8.23
2022-10-23T03:28:56.804Z,8.23
2022-10-23T03:31:28.009Z,8.23
2022-10-23T03:33:58.293Z,8.27
2022-10-23T03:36:34.973Z,8.21
2022-10-23T03:39:07.271Z,8.20
2022-10-23T03:41:35.324Z,8.10
2022-10-23T03:44:08.753Z,8.07
2022-10-23T03:46:41.929Z,7.99
2022-10-23T03:49:11.176Z,7.89
2022-10-23T03:51:41.733Z,7.82
2022-10-23T03:54:12.703Z,7.82
2022-10-23T03:56:40.833Z,7.76
2022-10-23T03:59:09.965Z,7.69
2022-10-23T04:01:40.411Z,7.66
2022-10-23T04:04:08.884Z,7.69
2022-10-23T04:06:37.360Z,7.66
2022-10-23T04:09:06.488Z,7.73
2022-10-23T04:11:34.948Z,7.66
2022-10-23T04:14:03.367Z,7.68
2022-10-23T04:16:31.648Z,7.59
2022-10-23T04:19:01.574Z,7.50
2022-10-23T04:21:29.819Z,7.47
2022-10-23T04:23:58.200Z,7.42
2022-10-23T04:26:26.436Z,7.47
2022-10-23T04:28:55.979Z,7.36
2022-10-23T04:31:24.570Z,7.31
2022-10-23T04:33:52.635Z,7.21
2022-10-23T04:36:24.883Z,7.14
2022-10-23T04:38:53.816Z,7.06
2022-10-23T04:41:24.542Z,6.97
2022-10-23T04:43:52.898Z,6.87
2022-10-23T04:46:22.252Z,6.87
2022-10-23T04:48:50.406Z,6.89
2022-10-23T04:51:18.697Z,6.83
2022-10-23T04:53:55.239Z,6.83
2022-10-23T04:56:23.492Z,6.85
2022-10-23T04:58:52.762Z,6.82
2022-10-23T05:01:21.079Z,6.79
2022-10-23T05:03:49.661Z,6.77
2022-10-23T05:06:17.936Z,6.72
2022-10-23T05:08:46.240Z,6.76
2022-10-23T05:11:17.101Z,6.76
2022-10-23T05:13:46.377Z,6.76
2022-10-23T05:16:26.375Z,6.82
2022-10-23T05:18:57.136Z,7.00
2022-10-23T05:21:30.497Z,7.07
2022-10-23T05:24:02.640Z,7.14
2022-10-23T05:26:34.807Z,7.15
2022-10-23T05:29:03.297Z,7.17
2022-10-23T05:31:35.544Z,7.17
2022-10-23T05:34:04.302Z,7.23
2022-10-23T05:36:32.827Z,7.17
2022-10-23T05:39:01.050Z,7.08
2022-10-23T05:41:29.732Z,7.00
2022-10-23T05:43:59.647Z,6.99
2022-10-23T05:46:29.412Z,6.99
2022-10-23T05:51:31.399Z,6.93
2022-10-23T05:54:00.138Z,6.94
2022-10-23T05:56:29.582Z,7.01
2022-10-23T05:59:07.874Z,7.06
2022-10-23T06:01:36.525Z,7.13
2022-10-23T06:04:09.241Z,7.17
2022-10-23T06:06:37.870Z,7.23
2022-10-23T06:09:09.162Z,7.27
2022-10-23T06:11:42.916Z,7.31
2022-10-23T06:14:12.847Z,7.42
2022-10-23T06:16:47.574Z,7.45
2022-10-23T06:19:16.744Z,7.50
2022-10-23T06:21:44.936Z,7.52
2022-10-23T06:24:14.480Z,7.56
2022-10-23T06:26:45.871Z,7.71
2022-10-23T06:29:15.535Z,7.75
2022-10-23T06:31:50.535Z,7.81
2022-10-23T06:34:22.036Z,7.89
2022-10-23T06:36:50.260Z,7.97
2022-10-23T06:39:23.719Z,8.02
2022-10-23T06:41:54.513Z,8.09
2022-10-23T06:44:24.257Z,8.13
2022-10-23T06:46:55.755Z,8.14
2022-10-23T06:49:25.300Z,8.24
2022-10-23T06:51:57.189Z,8.29
2022-10-23T06:54:27.285Z,8.36
2022-10-23T06:56:55.371Z,8.40
2022-10-23T06:59:26.265Z,8.51
2022-10-23T07:01:59.149Z,8.55
2022-10-23T07:04:28.006Z,8.69
2022-10-23T07:06:58.719Z,8.89
2022-10-23T07:09:27.255Z,9.06
2022-10-23T07:11:57.614Z,9.12
2022-10-23T07:14:32.624Z,9.23
2022-10-23T07:17:04.108Z,9.36
2022-10-23T07:19:32.524Z,9.50
2022-10-23T07:22:02.223Z,9.62
2022-10-23T07:24:37.411Z,9.77
2022-10-23T07:27:07.278Z,9.86
2022-10-23T07:29:39.740Z,10.01
2022-10-23T07:32:09.299Z,10.16
2022-10-23T07:34:37.764Z,10.28
2022-10-23T07:37:16.722Z,10.36
2022-10-23T07:39:46.827Z,10.44
2022-10-23T07:42:15.063Z,10.53
2022-10-23T07:44:45.353Z,10.67
2022-10-23T07:47:13.682Z,10.67
2022-10-23T07:49:42.125Z,10.82
2022-10-23T07:52:10.524Z,10.85
2022-10-23T07:54:40.795Z,10.97
2022-10-23T07:57:12.602Z,10.98
2022-10-23T07:59:40.603Z,11.14
2022-10-23T08:02:14.231Z,11.16
2022-10-23T08:04:43.051Z,11.30
2022-10-23T08:07:11.150Z,11.32
2022-10-23T08:09:39.964Z,11.38
2022-10-23T08:12:12.197Z,11.46
2022-10-23T08:14:41.063Z,11.46
2022-10-23T08:17:09.895Z,11.47
2022-10-23T08:19:48.204Z,11.57
2022-10-23T08:22:17.872Z,11.59
2022-10-23T08:24:49.757Z,11.77
2022-10-23T08:27:23.520Z,11.84
2022-10-23T08:29:52.153Z,11.93
2022-10-23T08:32:20.381Z,12.01
2022-10-23T08:34:50.516Z,12.02
2022-10-23T08:37:20.894Z,12.20
2022-10-23T08:39:53.256Z,12.29
2022-10-23T08:42:24.322Z,12.28
2022-10-23T08:45:00.394Z,12.44
2022-10-23T08:47:38.124Z,12.41
2022-10-23T08:50:15.374Z,12.45
2022-10-23T08:52:49.009Z,12.67
2022-10-23T08:55:24.536Z,12.66
2022-10-23T08:57:58.356Z,12.79
2022-10-23T09:00:29.434Z,12.93
2022-10-23T09:03:02.784Z,12.84
2022-10-23T09:05:37.900Z,12.84
2022-10-23T09:08:25.039Z,12.84
2022-10-23T09:11:05.657Z,12.89
2022-10-23T09:14:03.074Z,12.96
2022-10-23T09:16:50.691Z,12.99
2022-10-23T09:19:25.199Z,12.79
2022-10-23T09:21:56.787Z,12.94
2022-10-23T09:24:27.570Z,13.15
2022-10-23T09:26:56.126Z,13.30
2022-10-23T09:29:27.009Z,13.44
2022-10-23T09:31:57.344Z,13.50
2022-10-23T09:34:27.600Z,13.41
2022-10-23T09:36:59.809Z,13.61
2022-10-23T09:39:30.598Z,13.65
2022-10-23T09:41:59.864Z,13.68
2022-10-23T09:44:31.974Z,13.78
2022-10-23T09:47:02.532Z,13.80
2022-10-23T09:49:33.992Z,13.86
2022-10-23T09:52:09.230Z,14.00
2022-10-23T09:54:45.073Z,13.96
2022-10-23T09:57:24.449Z,13.99
2022-10-23T10:00:00.814Z,14.05
2022-10-23T10:02:31.462Z,14.12
2022-10-23T10:05:02.222Z,14.17
2022-10-23T10:07:34.783Z,14.30
2022-10-23T10:10:16.115Z,14.21
2022-10-23T10:12:51.222Z,14.10
2022-10-23T10:15:23.954Z,14.20
2022-10-23T10:18:17.627Z,14.20
2022-10-23T10:21:12.802Z,14.37
2022-10-23T10:23:53.037Z,14.60
2022-10-23T10:26:36.090Z,14.61
2022-10-23T10:29:19.070Z,14.64
2022-10-23T10:31:59.203Z,14.72
2022-10-23T10:34:33.923Z,14.79
2022-10-23T10:37:15.962Z,14.82
2022-10-23T10:39:57.425Z,14.93
2022-10-23T10:42:45.739Z,14.88
2022-10-23T10:45:26.625Z,15.02
2022-10-23T10:48:14.700Z,15.09
2022-10-23T10:50:49.287Z,15.16
2022-10-23T10:53:25.551Z,15.12
2022-10-23T10:55:56.638Z,15.29
2022-10-23T10:58:36.763Z,15.23
2022-10-23T11:01:16.968Z,15.43
2022-10-23T11:03:53.642Z,15.46
2022-10-23T11:06:25.567Z,15.53
2022-10-23T11:08:57.369Z,15.49
2022-10-23T11:11:42.542Z,15.55
2022-10-23T11:14:16.841Z,15.57
2022-10-23T11:16:51.762Z,15.67
2022-10-23T11:19:24.640Z,15.77
2022-10-23T11:22:03.605Z,15.87
2022-10-23T11:25:24.389Z,16.01
2022-10-23T11:28:27.649Z,16.08
2022-10-23T11:31:12.128Z,16.16
2022-10-23T11:34:10.041Z,16.21
2022-10-23T11:36:45.611Z,16.28
2022-10-23T11:39:25.305Z,16.29
2022-10-23T11:41:56.657Z,16.39
2022-10-23T11:44:42.653Z,16.40
2022-10-23T11:47:28.363Z,16.50
2022-10-23T11:50:16.609Z,16.55
2022-10-23T11:53:15.021Z,16.56
2022-10-23T11:55:59.253Z,16.64
2022-10-23T11:58:41.556Z,16.74
2022-10-23T12:01:26.001Z,16.88
2022-10-23T12:04:01.517Z,16.98
2022-10-23T12:06:39.861Z,17.18
2022-10-23T12:09:28.420Z,17.28
2022-10-23T12:12:21.130Z,17.32
2022-10-23T12:14:54.198Z,17.43
2022-10-23T12:17:36.568Z,17.31
2022-10-23T12:20:29.433Z,17.29
2022-10-23T12:23:14.993Z,17.38
2022-10-23T12:25:52.675Z,17.67
2022-10-23T12:28:33.596Z,17.79
2022-10-23T12:31:20.734Z,17.87
2022-10-23T12:34:00.648Z,17.86
2022-10-23T12:36:46.072Z,17.75
2022-10-23T12:39:29.550Z,17.82
2022-10-23T12:42:00.394Z,17.83
2022-10-23T12:44:31.324Z,17.50
2022-10-23T12:47:02.251Z,17.39
2022-10-23T12:49:36.370Z,17.29
2022-10-23T12:52:14.909Z,17.27
2022-10-23T12:54:45.729Z,17.43
2022-10-23T12:57:23.244Z,17.76
2022-10-23T13:00:00.563Z,17.90
2022-10-23T13:02:32.194Z,17.46
2022-10-23T13:05:04.415Z,17.08
2022-10-23T13:07:35.076Z,16.98
2022-10-23T13:10:06.183Z,16.80
2022-10-23T13:12:41.119Z,16.92
2022-10-23T13:15:20.185Z,16.92
2022-10-23T13:18:05.079Z,17.04
2022-10-23T13:20:38.093Z,17.08
2022-10-23T13:23:19.231Z,17.06
2022-10-23T13:25:57.219Z,16.88
2022-10-23T13:28:33.725Z,16.74
2022-10-23T13:31:25.702Z,16.73
2022-10-23T13:34:06.992Z,16.67
2022-10-23T13:36:41.380Z,16.64
2022-10-23T13:39:16.970Z,16.55
2022-10-23T13:41:46.827Z,16.43
2022-10-23T13:44:17.048Z,16.43
2022-10-23T13:46:52.742Z,16.33
2022-10-23T13:49:25.856Z,16.25
2022-10-23T13:51:58.848Z,16.33
2022-10-23T13:54:30.082Z,16.29
2022-10-23T13:57:06.483Z,16.19
2022-10-23T13:59:37.644Z,16.19
2022-10-23T14:02:18.647Z,16.18
2022-10-23T14:04:47.424Z,16.18
2022-10-23T14:07:21.767Z,16.19
2022-10-23T14:09:52.055Z,16.26
2022-10-23T14:12:22.869Z,16.26
2022-10-23T14:14:55.640Z,16.23
2022-10-23T14:17:27.874Z,16.23
2022-10-23T14:19:58.550Z,16.23
2022-10-23T14:22:32.855Z,16.21
2022-10-23T14:25:05.436Z,16.19
2022-10-23T14:27:38.358Z,16.16
2022-10-23T14:30:08.506Z,16.21
2022-10-23T14:32:41.185Z,16.26
2022-10-23T14:35:13.682Z,16.25
2022-10-23T14:37:48.756Z,16.23
2022-10-23T14:40:18.830Z,16.22
2022-10-23T14:42:52.098Z,16.21
2022-10-23T14:45:21.870Z,16.23
2022-10-23T14:47:50.563Z,16.18
2022-10-23T14:50:22.659Z,16.09
2022-10-23T14:52:53.936Z,16.12
2022-10-23T14:55:22.229Z,16.08
2022-10-23T14:58:00.163Z,16.09
2022-10-23T15:00:30.386Z,16.09
2022-10-23T15:03:02.841Z,16.04
2022-10-23T15:05:35.892Z,16.04
2022-10-23T15:08:10.684Z,16.09
2022-10-23T15:10:42.729Z,16.05
2022-10-23T15:13:15.070Z,16.02
2022-10-23T15:15:46.637Z,15.97
2022-10-23T15:18:21.701Z,15.95
2022-10-23T15:20:54.013Z,15.92
2022-10-23T15:23:32.016Z,15.88
2022-10-23T15:26:03.447Z,15.88
2022-10-23T15:28:35.477Z,15.85
2022-10-23T15:31:05.412Z,15.85
2022-10-23T15:33:47.312Z,15.82
2022-10-23T15:36:16.949Z,15.82
2022-10-23T15:38:52.204Z,15.80
2022-10-23T15:41:28.504Z,15.74
2022-10-23T15:43:59.599Z,15.70
2022-10-23T15:46:33.936Z,15.61
2022-10-23T15:49:03.374Z,15.65
2022-10-23T15:51:40.738Z,15.73
2022-10-23T15:54:13.542Z,15.70
2022-10-23T15:56:44.467Z,15.74
2022-10-23T15:59:16.079Z,15.73
2022-10-23T16:01:49.285Z,15.70
2022-10-23T16:04:20.568Z,15.71
2022-10-23T16:06:52.311Z,15.71
2022-10-23T16:09:21.521Z,15.71
2022-10-23T16:11:50.592Z,15.65
2022-10-23T16:14:19.607Z,15.63
2022-10-23T16:16:48.204Z,15.58
2022-10-23T16:19:18.685Z,15.58
2022-10-23T16:21:47.144Z,15.63
2022-10-23T16:24:20.765Z,15.70
2022-10-23T16:26:53.430Z,15.61
2022-10-23T16:29:22.251Z,15.61
2022-10-23T16:31:51.207Z,15.60
2022-10-23T16:34:21.613Z,15.60
2022-10-23T16:36:51.820Z,15.57
2022-10-23T16:39:23.147Z,15.55
2022-10-23T16:41:51.552Z,15.53
2022-10-23T16:44:20.231Z,15.55
2022-10-23T16:46:48.780Z,15.55
2022-10-23T16:49:17.763Z,15.58
2022-10-23T16:51:46.919Z,15.61
2022-10-23T16:54:15.899Z,15.65
2022-10-23T16:56:46.023Z,15.64
2022-10-23T16:59:14.403Z,15.58
2022-10-23T17:01:43.472Z,15.61
2022-10-23T17:04:12.159Z,15.50
2022-10-23T17:06:42.101Z,15.49
2022-10-23T17:09:10.843Z,15.46
2022-10-23T17:11:41.053Z,15.50
2022-10-23T17:14:15.876Z,15.57
2022-10-23T17:16:47.344Z,15.64
2022-10-23T17:19:33.145Z,15.67
2022-10-23T17:22:10.856Z,15.65
2022-10-23T17:24:40.965Z,15.68
2022-10-23T17:27:10.389Z,15.70
2022-10-23T17:29:40.469Z,15.70
2022-10-23T17:32:09.154Z,15.65
2022-10-23T17:34:39.428Z,15.65
2022-10-23T17:37:08.199Z,15.64
2022-10-23T17:39:37.036Z,15.65
2022-10-23T17:42:05.500Z,15.67
2022-10-23T17:44:34.626Z,15.68
2022-10-23T17:47:04.872Z,15.60
2022-10-23T17:49:34.174Z,15.57
2022-10-23T17:52:03.159Z,15.55
2022-10-23T17:54:31.679Z,15.55
2022-10-23T17:57:00.378Z,15.57
2022-10-23T17:59:29.252Z,15.53
2022-10-23T18:02:00.248Z,15.51
2022-10-23T18:04:32.596Z,15.60
2022-10-23T18:07:01.609Z,15.63
2022-10-23T18:09:30.081Z,15.58
2022-10-23T18:11:59.040Z,15.63
2022-10-23T18:14:29.661Z,15.63
2022-10-23T18:16:58.435Z,15.60
2022-10-23T18:19:28.482Z,15.57
2022-10-23T18:21:59.459Z,15.54
2022-10-23T18:24:27.900Z,15.51
2022-10-23T18:26:57.073Z,15.51
2022-10-23T18:29:26.638Z,15.50
2022-10-23T18:31:55.774Z,15.47
2022-10-23T18:34:26.092Z,15.49
2022-10-23T18:37:01.292Z,15.49
2022-10-23T18:39:32.448Z,15.53
2022-10-23T18:42:02.059Z,15.54
2022-10-23T18:44:31.386Z,15.53
2022-10-23T18:47:00.977Z,15.49
2022-10-23T18:49:29.799Z,15.49
2022-10-23T18:51:59.753Z,15.46
2022-10-23T18:54:54.278Z,15.50
2022-10-23T18:57:24.606Z,15.43
2022-10-23T18:59:58.627Z,15.46
2022-10-23T19:02:28.076Z,15.43
2022-10-23T19:04:57.964Z,15.42
2022-10-23T19:07:29.051Z,15.39
2022-10-23T19:09:59.160Z,15.34
2022-10-23T19:12:27.993Z,15.36
2022-10-23T19:14:57.154Z,15.34
2022-10-23T19:17:29.861Z,15.36
2022-10-23T19:20:02.940Z,15.43
2022-10-23T19:22:37.004Z,15.44
2022-10-23T19:25:11.842Z,15.43
2022-10-23T19:27:41.652Z,15.46
2022-10-23T19:30:15.525Z,15.50
2022-10-23T19:32:46.762Z,15.46
2022-10-23T19:35:18.464Z,15.43
2022-10-23T19:37:48.320Z,15.42
2022-10-23T19:40:17.699Z,15.33
2022-10-23T19:42:46.343Z,15.30
2022-10-23T19:45:17.057Z,15.27
2022-10-23T19:47:46.290Z,15.27
2022-10-23T19:50:16.124Z,15.29
2022-10-23T19:52:46.385Z,15.26
2022-10-23T19:55:21.138Z,15.26
2022-10-23T19:57:53.120Z,15.22
2022-10-23T20:00:24.429Z,15.26
2022-10-23T20:02:55.330Z,15.25
2022-10-23T20:05:25.708Z,15.23
2022-10-23T20:07:56.449Z,15.20
2022-10-23T20:10:26.824Z,15.20
2022-10-23T20:13:08.150Z,15.16
2022-10-23T20:15:48.063Z,15.15
2022-10-23T20:18:16.696Z,15.16
2022-10-23T20:20:45.781Z,15.13
2022-10-23T20:23:16.602Z,15.13
2022-10-23T20:25:48.277Z,15.13
2022-10-23T20:28:17.627Z,15.12
2022-10-23T20:30:47.041Z,15.07
2022-10-23T20:33:16.629Z,15.07
2022-10-23T20:35:47.677Z,15.05
2022-10-23T20:38:17.696Z,14.99
2022-10-23T20:40:49.578Z,14.96
2022-10-23T20:43:18.223Z,14.91
2022-10-23T20:45:46.991Z,14.78
2022-10-23T20:48:15.662Z,14.77
2022-10-23T20:50:45.846Z,14.75
2022-10-23T20:53:15.414Z,14.74
2022-10-23T20:55:46.806Z,14.69
2022-10-23T20:58:20.047Z,14.61
2022-10-23T21:00:50.356Z,14.57
2022-10-23T21:03:20.095Z,14.47
2022-10-23T21:05:50.989Z,14.44
2022-10-23T21:08:21.255Z,14.36
2022-10-23T21:10:49.495Z,14.28
2022-10-23T21:13:19.229Z,14.20
2022-10-23T21:15:48.301Z,14.12
2022-10-23T21:18:26.536Z,14.07
2022-10-23T21:21:03.156Z,14.06
2022-10-23T21:23:32.899Z,14.05
2022-10-23T21:26:06.326Z,14.07
2022-10-23T21:28:40.020Z,14.12
2022-10-23T21:31:13.580Z,14.10
2022-10-23T21:33:44.092Z,14.07
2022-10-23T21:36:17.122Z,14.09
2022-10-23T21:38:45.997Z,14.06
2022-10-23T21:41:16.444Z,14.05
2022-10-23T21:43:47.048Z,14.07
2022-10-23T21:46:19.232Z,14.17
2022-10-23T21:48:51.325Z,14.20
2022-10-23T21:51:25.818Z,14.21
2022-10-23T21:53:55.130Z,14.23
2022-10-23T21:56:31.191Z,14.24
2022-10-23T22:01:40.778Z,14.21
2022-10-23T22:04:11.440Z,14.20
2022-10-23T22:06:40.013Z,14.13
2022-10-23T22:09:09.658Z,14.06
2022-10-23T22:11:38.359Z,14.05
2022-10-23T22:14:10.468Z,14.00
2022-10-23T22:16:39.338Z,13.96
2022-10-23T22:19:07.849Z,13.98
2022-10-23T22:21:35.958Z,13.99
2022-10-23T22:24:09.591Z,13.95
2022-10-23T22:26:39.198Z,13.93
2022-10-23T22:29:11.846Z,13.93
2022-10-23T22:31:44.216Z,13.89
2022-10-23T22:34:28.744Z,13.90
2022-10-23T22:37:07.459Z,13.86
2022-10-23T22:39:36.166Z,13.87
2022-10-23T22:42:04.444Z,13.86
2022-10-23T22:44:35.618Z,13.86
2022-10-23T22:47:06.424Z,13.89
2022-10-23T22:49:38.422Z,13.89
2022-10-23T22:52:07.602Z,13.89
2022-10-23T22:54:38.724Z,13.96
2022-10-23T22:57:11.563Z,13.99
2022-10-23T22:59:42.004Z,13.98
2022-10-23T23:02:10.316Z,14.00
2022-10-23T23:04:39.523Z,14.02
2022-10-23T23:07:08.854Z,14.02
2022-10-23T23:09:39.235Z,14.00
2022-10-23T23:12:09.177Z,13.98
2022-10-23T23:14:37.418Z,14.02
2022-10-23T23:17:08.359Z,14.02
2022-10-23T23:19:37.021Z,14.03
2022-10-23T23:22:05.756Z,13.98
2022-10-23T23:24:34.455Z,13.92
2022-10-23T23:27:03.179Z,13.86
2022-10-23T23:29:31.737Z,13.78
2022-10-23T23:31:59.867Z,13.71
2022-10-23T23:34:30.507Z,13.62
2022-10-23T23:36:58.947Z,13.51
2022-10-23T23:39:28.772Z,13.50
2022-10-23T23:41:57.238Z,13.41
2022-10-23T23:44:25.390Z,13.37
2022-10-23T23:46:56.938Z,13.34
2022-10-23T23:49:26.463Z,13.32
2022-10-23T23:51:56.498Z,13.27
2022-10-23T23:54:24.699Z,13.24
2022-10-23T23:56:53.855Z,13.21
2022-10-23T23:59:22.784Z,13.21
